sensor_id;sensor_type;location;lat;lon;timestamp;temperature;humidity
54202;DHT22;40108;53.152;5.844;2022-09-13T00:00:36;17.70;95.00
54202;DHT22;40108;53.152;5.844;2022-09-13T00:03:02;17.60;95.00
54202;DHT22;40108;53.152;5.844;2022-09-13T00:05:28;17.60;95.00
54202;DHT22;40108;53.152;5.844;2022-09-13T00:07:54;17.60;94.90
54202;DHT22;40108;53.152;5.844;2022-09-13T00:10:20;17.60;95.00
54202;DHT22;40108;53.152;5.844;2022-09-13T00:12:47;17.60;94.90
54202;DHT22;40108;53.152;5.844;2022-09-13T00:15:13;17.50;94.90
54202;DHT22;40108;53.152;5.844;2022-09-13T00:17:39;17.50;94.90
54202;DHT22;40108;53.152;5.844;2022-09-13T00:20:05;17.40;94.90
54202;DHT22;40108;53.152;5.844;2022-09-13T00:22:31;17.50;94.90
54202;DHT22;40108;53.152;5.844;2022-09-13T00:24:57;17.40;94.80
54202;DHT22;40108;53.152;5.844;2022-09-13T00:27:23;17.40;94.90
54202;DHT22;40108;53.152;5.844;2022-09-13T00:29:48;17.40;94.90
54202;DHT22;40108;53.152;5.844;2022-09-13T00:32:14;17.40;94.80
54202;DHT22;40108;53.152;5.844;2022-09-13T00:34:40;17.40;94.80
54202;DHT22;40108;53.152;5.844;2022-09-13T00:37:05;17.40;94.90
54202;DHT22;40108;53.152;5.844;2022-09-13T00:39:31;17.40;94.90
54202;DHT22;40108;53.152;5.844;2022-09-13T00:41:57;17.40;94.90
54202;DHT22;40108;53.152;5.844;2022-09-13T00:47:35;17.40;94.90
54202;DHT22;40108;53.152;5.844;2022-09-13T00:52:43;17.40;94.90
54202;DHT22;40108;53.152;5.844;2022-09-13T00:55:20;17.40;94.90
54202;DHT22;40108;53.152;5.844;2022-09-13T00:57:46;17.40;94.80
54202;DHT22;40108;53.152;5.844;2022-09-13T01:00:15;17.40;95.00
54202;DHT22;40108;53.152;5.844;2022-09-13T01:02:46;17.40;95.00
54202;DHT22;40108;53.152;5.844;2022-09-13T01:05:14;17.50;95.10
54202;DHT22;40108;53.152;5.844;2022-09-13T01:07:42;17.50;95.10
54202;DHT22;40108;53.152;5.844;2022-09-13T01:10:08;17.40;95.00
54202;DHT22;40108;53.152;5.844;2022-09-13T01:15:21;17.40;94.90
54202;DHT22;40108;53.152;5.844;2022-09-13T01:17:48;17.50;95.00
54202;DHT22;40108;53.152;5.844;2022-09-13T01:20:15;17.40;95.00
54202;DHT22;40108;53.152;5.844;2022-09-13T01:30:45;17.50;95.00
54202;DHT22;40108;53.152;5.844;2022-09-13T01:52:27;17.50;95.10
54202;DHT22;40108;53.152;5.844;2022-09-13T02:00:26;17.40;95.20
54202;DHT22;40108;53.152;5.844;2022-09-13T02:03:28;17.50;95.30
54202;DHT22;40108;53.152;5.844;2022-09-13T02:06:07;17.50;95.30
54202;DHT22;40108;53.152;5.844;2022-09-13T02:09:03;17.40;95.40
54202;DHT22;40108;53.152;5.844;2022-09-13T02:11:33;17.50;95.60
54202;DHT22;40108;53.152;5.844;2022-09-13T02:14:04;17.50;95.50
54202;DHT22;40108;53.152;5.844;2022-09-13T02:16:45;17.60;95.60
54202;DHT22;40108;53.152;5.844;2022-09-13T02:19:38;17.50;95.50
54202;DHT22;40108;53.152;5.844;2022-09-13T02:22:06;17.50;95.60
54202;DHT22;40108;53.152;5.844;2022-09-13T02:24:37;17.50;95.60
54202;DHT22;40108;53.152;5.844;2022-09-13T02:27:09;17.50;95.50
54202;DHT22;40108;53.152;5.844;2022-09-13T02:29:38;17.60;95.50
54202;DHT22;40108;53.152;5.844;2022-09-13T02:34:54;17.60;95.70
54202;DHT22;40108;53.152;5.844;2022-09-13T02:37:24;17.60;95.70
54202;DHT22;40108;53.152;5.844;2022-09-13T02:39:56;17.60;95.70
54202;DHT22;40108;53.152;5.844;2022-09-13T02:42:48;17.60;95.60
54202;DHT22;40108;53.152;5.844;2022-09-13T02:45:15;17.50;95.50
54202;DHT22;40108;53.152;5.844;2022-09-13T02:47:59;17.40;95.30
54202;DHT22;40108;53.152;5.844;2022-09-13T02:51:02;17.40;95.20
54202;DHT22;40108;53.152;5.844;2022-09-13T02:53:46;17.40;95.10
54202;DHT22;40108;53.152;5.844;2022-09-13T02:56:28;17.30;95.00
54202;DHT22;40108;53.152;5.844;2022-09-13T03:01:34;17.30;95.00
54202;DHT22;40108;53.152;5.844;2022-09-13T03:04:01;17.20;94.90
54202;DHT22;40108;53.152;5.844;2022-09-13T03:06:28;17.20;94.90
54202;DHT22;40108;53.152;5.844;2022-09-13T03:08:56;17.20;94.90
54202;DHT22;40108;53.152;5.844;2022-09-13T03:15:00;17.20;94.80
54202;DHT22;40108;53.152;5.844;2022-09-13T03:17:45;17.20;94.80
54202;DHT22;40108;53.152;5.844;2022-09-13T03:20:20;17.30;94.80
54202;DHT22;40108;53.152;5.844;2022-09-13T03:28:33;17.20;94.80
54202;DHT22;40108;53.152;5.844;2022-09-13T03:34:30;17.20;94.80
54202;DHT22;40108;53.152;5.844;2022-09-13T03:39:47;17.20;94.70
54202;DHT22;40108;53.152;5.844;2022-09-13T03:42:33;17.20;94.70
54202;DHT22;40108;53.152;5.844;2022-09-13T03:45:03;17.30;94.80
54202;DHT22;40108;53.152;5.844;2022-09-13T03:47:32;17.30;94.70
54202;DHT22;40108;53.152;5.844;2022-09-13T03:50:02;17.30;94.70
54202;DHT22;40108;53.152;5.844;2022-09-13T03:52:28;17.30;94.70
54202;DHT22;40108;53.152;5.844;2022-09-13T03:54:54;17.30;94.70
54202;DHT22;40108;53.152;5.844;2022-09-13T03:57:20;17.20;94.70
54202;DHT22;40108;53.152;5.844;2022-09-13T04:02:16;17.20;94.60
54202;DHT22;40108;53.152;5.844;2022-09-13T04:04:43;17.20;94.60
54202;DHT22;40108;53.152;5.844;2022-09-13T04:07:11;17.20;94.40
54202;DHT22;40108;53.152;5.844;2022-09-13T04:09:37;17.10;94.40
54202;DHT22;40108;53.152;5.844;2022-09-13T04:12:04;17.20;94.40
54202;DHT22;40108;53.152;5.844;2022-09-13T04:14:29;17.20;94.40
54202;DHT22;40108;53.152;5.844;2022-09-13T04:16:56;17.10;94.40
54202;DHT22;40108;53.152;5.844;2022-09-13T04:19:23;17.10;94.40
54202;DHT22;40108;53.152;5.844;2022-09-13T04:21:50;17.20;94.40
54202;DHT22;40108;53.152;5.844;2022-09-13T04:24:16;17.10;94.30
54202;DHT22;40108;53.152;5.844;2022-09-13T04:26:43;17.10;94.30
54202;DHT22;40108;53.152;5.844;2022-09-13T04:29:09;17.10;94.40
54202;DHT22;40108;53.152;5.844;2022-09-13T04:31:36;17.10;94.40
54202;DHT22;40108;53.152;5.844;2022-09-13T04:34:02;17.10;94.40
54202;DHT22;40108;53.152;5.844;2022-09-13T04:36:29;17.10;94.40
54202;DHT22;40108;53.152;5.844;2022-09-13T04:38:56;17.10;94.50
54202;DHT22;40108;53.152;5.844;2022-09-13T04:41:22;17.00;94.40
54202;DHT22;40108;53.152;5.844;2022-09-13T04:43:51;17.10;94.40
54202;DHT22;40108;53.152;5.844;2022-09-13T04:46:17;17.10;94.50
54202;DHT22;40108;53.152;5.844;2022-09-13T04:48:48;17.00;94.30
54202;DHT22;40108;53.152;5.844;2022-09-13T04:51:13;17.00;94.40
54202;DHT22;40108;53.152;5.844;2022-09-13T04:53:39;16.90;94.50
54202;DHT22;40108;53.152;5.844;2022-09-13T04:56:05;16.90;94.60
54202;DHT22;40108;53.152;5.844;2022-09-13T04:58:32;16.90;94.60
54202;DHT22;40108;53.152;5.844;2022-09-13T05:01:02;16.90;94.50
54202;DHT22;40108;53.152;5.844;2022-09-13T05:03:32;16.90;94.60
54202;DHT22;40108;53.152;5.844;2022-09-13T05:06:02;16.90;94.60
54202;DHT22;40108;53.152;5.844;2022-09-13T05:08:28;16.90;94.70
54202;DHT22;40108;53.152;5.844;2022-09-13T05:10:54;16.90;94.70
54202;DHT22;40108;53.152;5.844;2022-09-13T05:13:19;16.90;94.70
54202;DHT22;40108;53.152;5.844;2022-09-13T05:15:45;16.80;94.70
54202;DHT22;40108;53.152;5.844;2022-09-13T05:18:11;16.90;94.80
54202;DHT22;40108;53.152;5.844;2022-09-13T05:20:37;16.90;94.80
54202;DHT22;40108;53.152;5.844;2022-09-13T05:23:03;16.90;94.90
54202;DHT22;40108;53.152;5.844;2022-09-13T05:25:28;16.90;94.90
54202;DHT22;40108;53.152;5.844;2022-09-13T05:27:54;16.90;94.80
54202;DHT22;40108;53.152;5.844;2022-09-13T05:30:21;16.90;94.80
54202;DHT22;40108;53.152;5.844;2022-09-13T05:32:47;16.90;94.80
54202;DHT22;40108;53.152;5.844;2022-09-13T05:35:12;16.90;95.00
54202;DHT22;40108;53.152;5.844;2022-09-13T05:37:38;17.00;95.00
54202;DHT22;40108;53.152;5.844;2022-09-13T05:40:05;17.00;94.80
54202;DHT22;40108;53.152;5.844;2022-09-13T05:42:30;17.00;94.80
54202;DHT22;40108;53.152;5.844;2022-09-13T05:44:56;16.90;94.90
54202;DHT22;40108;53.152;5.844;2022-09-13T05:47:22;17.00;94.90
54202;DHT22;40108;53.152;5.844;2022-09-13T05:49:48;17.00;94.80
54202;DHT22;40108;53.152;5.844;2022-09-13T05:52:13;17.00;94.80
54202;DHT22;40108;53.152;5.844;2022-09-13T05:54:39;17.10;94.90
54202;DHT22;40108;53.152;5.844;2022-09-13T05:57:05;17.10;94.90
54202;DHT22;40108;53.152;5.844;2022-09-13T05:59:31;17.10;95.00
54202;DHT22;40108;53.152;5.844;2022-09-13T06:01:57;17.10;95.10
54202;DHT22;40108;53.152;5.844;2022-09-13T06:04:23;17.10;95.00
54202;DHT22;40108;53.152;5.844;2022-09-13T06:06:48;17.10;94.90
54202;DHT22;40108;53.152;5.844;2022-09-13T06:09:14;17.10;94.90
54202;DHT22;40108;53.152;5.844;2022-09-13T06:11:40;17.10;94.80
54202;DHT22;40108;53.152;5.844;2022-09-13T06:14:06;17.10;94.70
54202;DHT22;40108;53.152;5.844;2022-09-13T06:16:32;17.10;94.40
54202;DHT22;40108;53.152;5.844;2022-09-13T06:18:58;17.10;94.30
54202;DHT22;40108;53.152;5.844;2022-09-13T06:21:24;17.10;94.10
54202;DHT22;40108;53.152;5.844;2022-09-13T06:23:52;17.10;94.00
54202;DHT22;40108;53.152;5.844;2022-09-13T06:26:20;17.10;93.60
54202;DHT22;40108;53.152;5.844;2022-09-13T06:28:48;17.10;93.60
54202;DHT22;40108;53.152;5.844;2022-09-13T06:31:15;17.10;93.40
54202;DHT22;40108;53.152;5.844;2022-09-13T06:33:42;17.10;93.40
54202;DHT22;40108;53.152;5.844;2022-09-13T06:36:10;17.10;93.40
54202;DHT22;40108;53.152;5.844;2022-09-13T06:38:38;17.10;93.30
54202;DHT22;40108;53.152;5.844;2022-09-13T06:41:06;17.10;93.10
54202;DHT22;40108;53.152;5.844;2022-09-13T06:43:35;17.10;93.20
54202;DHT22;40108;53.152;5.844;2022-09-13T06:46:06;17.10;93.20
54202;DHT22;40108;53.152;5.844;2022-09-13T06:48:34;17.10;93.10
54202;DHT22;40108;53.152;5.844;2022-09-13T06:51:02;17.20;93.00
54202;DHT22;40108;53.152;5.844;2022-09-13T06:53:29;17.20;93.00
54202;DHT22;40108;53.152;5.844;2022-09-13T06:56:09;17.20;92.80
54202;DHT22;40108;53.152;5.844;2022-09-13T06:58:36;17.30;92.80
54202;DHT22;40108;53.152;5.844;2022-09-13T07:01:12;17.40;92.60
54202;DHT22;40108;53.152;5.844;2022-09-13T07:03:47;17.40;92.60
54202;DHT22;40108;53.152;5.844;2022-09-13T07:06:21;17.50;92.50
54202;DHT22;40108;53.152;5.844;2022-09-13T07:08:48;17.60;92.50
54202;DHT22;40108;53.152;5.844;2022-09-13T07:11:16;17.60;92.30
54202;DHT22;40108;53.152;5.844;2022-09-13T07:13:47;17.70;92.20
54202;DHT22;40108;53.152;5.844;2022-09-13T07:16:13;17.80;91.80
54202;DHT22;40108;53.152;5.844;2022-09-13T07:18:39;17.90;91.60
54202;DHT22;40108;53.152;5.844;2022-09-13T07:21:07;18.00;91.30
54202;DHT22;40108;53.152;5.844;2022-09-13T07:23:34;18.00;91.20
54202;DHT22;40108;53.152;5.844;2022-09-13T07:26:01;18.10;90.90
54202;DHT22;40108;53.152;5.844;2022-09-13T07:28:42;18.20;89.80
54202;DHT22;40108;53.152;5.844;2022-09-13T07:33:34;18.40;88.80
54202;DHT22;40108;53.152;5.844;2022-09-13T07:36:00;18.50;89.00
54202;DHT22;40108;53.152;5.844;2022-09-13T07:38:28;18.60;87.60
54202;DHT22;40108;53.152;5.844;2022-09-13T07:40:55;18.70;87.30
54202;DHT22;40108;53.152;5.844;2022-09-13T07:43:23;18.80;87.60
54202;DHT22;40108;53.152;5.844;2022-09-13T07:45:56;18.90;83.70
54202;DHT22;40108;53.152;5.844;2022-09-13T07:48:23;18.90;83.70
54202;DHT22;40108;53.152;5.844;2022-09-13T07:53:35;19.00;85.90
54202;DHT22;40108;53.152;5.844;2022-09-13T07:56:07;19.10;84.80
54202;DHT22;40108;53.152;5.844;2022-09-13T07:58:35;19.20;84.60
54202;DHT22;40108;53.152;5.844;2022-09-13T08:01:11;19.30;83.30
54202;DHT22;40108;53.152;5.844;2022-09-13T08:03:38;19.60;83.80
54202;DHT22;40108;53.152;5.844;2022-09-13T08:06:05;19.60;81.50
54202;DHT22;40108;53.152;5.844;2022-09-13T08:08:32;19.70;80.50
54202;DHT22;40108;53.152;5.844;2022-09-13T08:10:59;19.80;81.00
54202;DHT22;40108;53.152;5.844;2022-09-13T08:13:25;20.00;79.10
54202;DHT22;40108;53.152;5.844;2022-09-13T08:15:51;20.20;79.70
54202;DHT22;40108;53.152;5.844;2022-09-13T08:18:18;20.50;77.30
54202;DHT22;40108;53.152;5.844;2022-09-13T08:20:44;20.60;76.00
54202;DHT22;40108;53.152;5.844;2022-09-13T08:23:10;20.60;77.40
54202;DHT22;40108;53.152;5.844;2022-09-13T08:25:37;20.80;76.10
54202;DHT22;40108;53.152;5.844;2022-09-13T08:28:15;20.80;74.40
54202;DHT22;40108;53.152;5.844;2022-09-13T08:30:42;20.90;73.90
54202;DHT22;40108;53.152;5.844;2022-09-13T08:33:09;21.20;74.10
54202;DHT22;40108;53.152;5.844;2022-09-13T08:35:36;21.50;73.30
54202;DHT22;40108;53.152;5.844;2022-09-13T08:38:02;21.80;72.40
54202;DHT22;40108;53.152;5.844;2022-09-13T08:40:31;21.90;69.30
54202;DHT22;40108;53.152;5.844;2022-09-13T08:46:04;22.00;68.20
54202;DHT22;40108;53.152;5.844;2022-09-13T08:48:34;22.30;68.30
54202;DHT22;40108;53.152;5.844;2022-09-13T08:53:49;22.70;66.10
54202;DHT22;40108;53.152;5.844;2022-09-13T08:56:43;22.90;62.90
54202;DHT22;40108;53.152;5.844;2022-09-13T09:04:47;23.20;63.70
54202;DHT22;40108;53.152;5.844;2022-09-13T09:07:25;23.60;61.90
54202;DHT22;40108;53.152;5.844;2022-09-13T09:15:09;22.80;62.30
54202;DHT22;40108;53.152;5.844;2022-09-13T09:18:01;22.40;64.00
54202;DHT22;40108;53.152;5.844;2022-09-13T09:20:47;22.30;64.10
54202;DHT22;40108;53.152;5.844;2022-09-13T09:23:24;22.40;64.30
54202;DHT22;40108;53.152;5.844;2022-09-13T09:25:59;22.50;63.00
54202;DHT22;40108;53.152;5.844;2022-09-13T09:28:27;22.70;63.80
54202;DHT22;40108;53.152;5.844;2022-09-13T09:39:04;23.50;59.60
54202;DHT22;40108;53.152;5.844;2022-09-13T09:41:32;22.80;60.50
54202;DHT22;40108;53.152;5.844;2022-09-13T09:44:19;22.20;62.30
54202;DHT22;40108;53.152;5.844;2022-09-13T09:47:20;21.70;63.40
54202;DHT22;40108;53.152;5.844;2022-09-13T09:49:54;21.60;66.50
54202;DHT22;40108;53.152;5.844;2022-09-13T09:52:43;22.10;62.70
54202;DHT22;40108;53.152;5.844;2022-09-13T09:58:41;22.90;58.50
54202;DHT22;40108;53.152;5.844;2022-09-13T10:01:34;22.50;60.20
54202;DHT22;40108;53.152;5.844;2022-09-13T10:06:38;22.10;61.80
54202;DHT22;40108;53.152;5.844;2022-09-13T10:11:49;22.80;63.00
54202;DHT22;40108;53.152;5.844;2022-09-13T10:19:59;23.80;58.90
54202;DHT22;40108;53.152;5.844;2022-09-13T10:22:27;23.60;56.90
54202;DHT22;40108;53.152;5.844;2022-09-13T10:24:54;23.50;57.80
54202;DHT22;40108;53.152;5.844;2022-09-13T10:27:36;23.10;59.20
54202;DHT22;40108;53.152;5.844;2022-09-13T10:30:04;22.80;60.10
54202;DHT22;40108;53.152;5.844;2022-09-13T10:32:31;22.50;59.70
54202;DHT22;40108;53.152;5.844;2022-09-13T10:35:14;22.40;61.00
54202;DHT22;40108;53.152;5.844;2022-09-13T10:37:42;22.30;62.20
54202;DHT22;40108;53.152;5.844;2022-09-13T10:40:28;22.00;62.50
54202;DHT22;40108;53.152;5.844;2022-09-13T10:43:00;22.10;63.70
54202;DHT22;40108;53.152;5.844;2022-09-13T10:45:28;22.60;63.60
54202;DHT22;40108;53.152;5.844;2022-09-13T10:48:19;22.90;60.20
54202;DHT22;40108;53.152;5.844;2022-09-13T10:51:07;23.00;60.40
54202;DHT22;40108;53.152;5.844;2022-09-13T10:53:39;23.00;58.80
54202;DHT22;40108;53.152;5.844;2022-09-13T10:56:21;23.40;57.70
54202;DHT22;40108;53.152;5.844;2022-09-13T10:58:47;23.60;55.50
54202;DHT22;40108;53.152;5.844;2022-09-13T11:22:52;25.50;53.50
54202;DHT22;40108;53.152;5.844;2022-09-13T11:34:20;25.10;51.60
54202;DHT22;40108;53.152;5.844;2022-09-13T11:36:59;24.60;54.70
54202;DHT22;40108;53.152;5.844;2022-09-13T11:39:43;24.50;53.30
54202;DHT22;40108;53.152;5.844;2022-09-13T11:45:23;24.30;53.80
54202;DHT22;40108;53.152;5.844;2022-09-13T11:51:03;24.40;55.00
54202;DHT22;40108;53.152;5.844;2022-09-13T11:56:13;24.10;54.00
54202;DHT22;40108;53.152;5.844;2022-09-13T11:58:52;24.10;54.60
54202;DHT22;40108;53.152;5.844;2022-09-13T12:01:35;24.00;54.40
54202;DHT22;40108;53.152;5.844;2022-09-13T12:04:48;23.80;55.00
54202;DHT22;40108;53.152;5.844;2022-09-13T12:06:58;23.60;56.00
54202;DHT22;40108;53.152;5.844;2022-09-13T12:09:29;23.30;55.80
54202;DHT22;40108;53.152;5.844;2022-09-13T12:12:17;22.90;56.00
54202;DHT22;40108;53.152;5.844;2022-09-13T12:14:51;22.60;55.70
54202;DHT22;40108;53.152;5.844;2022-09-13T12:19:52;22.40;57.40
54202;DHT22;40108;53.152;5.844;2022-09-13T12:22:22;22.30;59.30
54202;DHT22;40108;53.152;5.844;2022-09-13T12:24:55;22.30;57.50
54202;DHT22;40108;53.152;5.844;2022-09-13T12:27:28;22.40;59.10
54202;DHT22;40108;53.152;5.844;2022-09-13T12:30:23;22.50;58.90
54202;DHT22;40108;53.152;5.844;2022-09-13T12:32:50;22.30;58.20
54202;DHT22;40108;53.152;5.844;2022-09-13T12:49:27;21.90;59.00
54202;DHT22;40108;53.152;5.844;2022-09-13T12:52:11;21.80;59.00
54202;DHT22;40108;53.152;5.844;2022-09-13T12:58:02;21.70;60.00
54202;DHT22;40108;53.152;5.844;2022-09-13T13:03:28;21.60;60.40
54202;DHT22;40108;53.152;5.844;2022-09-13T13:06:32;21.50;61.30
54202;DHT22;40108;53.152;5.844;2022-09-13T13:09:03;21.50;59.80
54202;DHT22;40108;53.152;5.844;2022-09-13T13:11:42;21.40;60.50
54202;DHT22;40108;53.152;5.844;2022-09-13T13:14:29;21.30;59.50
54202;DHT22;40108;53.152;5.844;2022-09-13T13:19:59;21.10;60.40
54202;DHT22;40108;53.152;5.844;2022-09-13T13:27:57;20.90;61.50
54202;DHT22;40108;53.152;5.844;2022-09-13T13:30:38;20.90;61.70
54202;DHT22;40108;53.152;5.844;2022-09-13T13:33:17;20.80;61.70
54202;DHT22;40108;53.152;5.844;2022-09-13T13:35:43;20.80;62.70
54202;DHT22;40108;53.152;5.844;2022-09-13T13:38:39;20.90;63.60
54202;DHT22;40108;53.152;5.844;2022-09-13T13:41:34;20.90;60.80
54202;DHT22;40108;53.152;5.844;2022-09-13T13:43:53;20.80;59.80
54202;DHT22;40108;53.152;5.844;2022-09-13T13:46:25;20.70;60.30
54202;DHT22;40108;53.152;5.844;2022-09-13T13:48:51;20.60;61.50
54202;DHT22;40108;53.152;5.844;2022-09-13T13:51:19;20.60;61.30
54202;DHT22;40108;53.152;5.844;2022-09-13T13:54:01;20.50;61.00
54202;DHT22;40108;53.152;5.844;2022-09-13T13:56:34;20.40;60.60
54202;DHT22;40108;53.152;5.844;2022-09-13T13:59:17;20.40;61.00
54202;DHT22;40108;53.152;5.844;2022-09-13T14:01:47;20.20;61.70
54202;DHT22;40108;53.152;5.844;2022-09-13T14:09:50;20.10;61.20
54202;DHT22;40108;53.152;5.844;2022-09-13T14:15:21;20.00;61.40
54202;DHT22;40108;53.152;5.844;2022-09-13T14:20:20;19.80;62.00
54202;DHT22;40108;53.152;5.844;2022-09-13T14:22:47;19.80;62.50
54202;DHT22;40108;53.152;5.844;2022-09-13T14:27:46;19.80;63.10
54202;DHT22;40108;53.152;5.844;2022-09-13T14:30:24;19.70;61.00
54202;DHT22;40108;53.152;5.844;2022-09-13T14:32:54;19.70;63.00
54202;DHT22;40108;53.152;5.844;2022-09-13T14:36:00;19.60;62.30
54202;DHT22;40108;53.152;5.844;2022-09-13T14:38:20;19.60;63.30
54202;DHT22;40108;53.152;5.844;2022-09-13T14:40:53;19.60;63.70
54202;DHT22;40108;53.152;5.844;2022-09-13T14:43:24;19.60;63.50
54202;DHT22;40108;53.152;5.844;2022-09-13T14:48:35;19.60;63.20
54202;DHT22;40108;53.152;5.844;2022-09-13T14:51:20;19.60;63.00
54202;DHT22;40108;53.152;5.844;2022-09-13T14:53:51;19.60;63.40
54202;DHT22;40108;53.152;5.844;2022-09-13T14:56:39;19.60;63.70
54202;DHT22;40108;53.152;5.844;2022-09-13T14:59:30;19.60;62.30
54202;DHT22;40108;53.152;5.844;2022-09-13T15:01:59;19.60;64.20
54202;DHT22;40108;53.152;5.844;2022-09-13T15:04:29;19.60;64.30
54202;DHT22;40108;53.152;5.844;2022-09-13T15:07:21;19.50;64.20
54202;DHT22;40108;53.152;5.844;2022-09-13T15:09:49;19.40;64.80
54202;DHT22;40108;53.152;5.844;2022-09-13T15:12:26;19.30;64.40
54202;DHT22;40108;53.152;5.844;2022-09-13T15:15:22;19.20;64.50
54202;DHT22;40108;53.152;5.844;2022-09-13T15:20:47;19.10;64.80
54202;DHT22;40108;53.152;5.844;2022-09-13T15:23:20;19.10;65.90
54202;DHT22;40108;53.152;5.844;2022-09-13T15:25:56;19.10;64.60
54202;DHT22;40108;53.152;5.844;2022-09-13T15:28:26;19.10;65.50
54202;DHT22;40108;53.152;5.844;2022-09-13T15:30:53;19.10;65.30
54202;DHT22;40108;53.152;5.844;2022-09-13T15:33:38;19.10;64.50
54202;DHT22;40108;53.152;5.844;2022-09-13T15:44:00;19.10;64.70
54202;DHT22;40108;53.152;5.844;2022-09-13T15:46:27;19.10;64.40
54202;DHT22;40108;53.152;5.844;2022-09-13T15:48:59;19.10;64.60
54202;DHT22;40108;53.152;5.844;2022-09-13T15:51:26;19.10;65.10
54202;DHT22;40108;53.152;5.844;2022-09-13T15:53:53;19.10;64.90
54202;DHT22;40108;53.152;5.844;2022-09-13T15:56:33;19.00;65.30
54202;DHT22;40108;53.152;5.844;2022-09-13T15:58:59;19.10;64.80
54202;DHT22;40108;53.152;5.844;2022-09-13T16:01:25;19.00;65.30
54202;DHT22;40108;53.152;5.844;2022-09-13T16:03:52;19.00;65.70
54202;DHT22;40108;53.152;5.844;2022-09-13T16:06:18;19.00;65.80
54202;DHT22;40108;53.152;5.844;2022-09-13T16:08:44;19.00;66.10
54202;DHT22;40108;53.152;5.844;2022-09-13T16:11:09;19.00;66.50
54202;DHT22;40108;53.152;5.844;2022-09-13T16:13:35;19.00;67.10
54202;DHT22;40108;53.152;5.844;2022-09-13T16:16:01;19.00;66.80
54202;DHT22;40108;53.152;5.844;2022-09-13T16:18:27;18.90;67.40
54202;DHT22;40108;53.152;5.844;2022-09-13T16:20:53;18.90;67.20
54202;DHT22;40108;53.152;5.844;2022-09-13T16:23:19;18.80;67.10
54202;DHT22;40108;53.152;5.844;2022-09-13T16:25:44;18.70;67.40
54202;DHT22;40108;53.152;5.844;2022-09-13T16:28:17;18.70;67.80
54202;DHT22;40108;53.152;5.844;2022-09-13T16:30:46;18.70;68.10
54202;DHT22;40108;53.152;5.844;2022-09-13T16:33:12;18.60;68.40
54202;DHT22;40108;53.152;5.844;2022-09-13T16:35:37;18.60;68.80
54202;DHT22;40108;53.152;5.844;2022-09-13T16:38:03;18.70;68.90
54202;DHT22;40108;53.152;5.844;2022-09-13T16:40:29;18.60;68.90
54202;DHT22;40108;53.152;5.844;2022-09-13T16:42:54;18.60;68.70
54202;DHT22;40108;53.152;5.844;2022-09-13T16:45:20;18.50;68.30
54202;DHT22;40108;53.152;5.844;2022-09-13T16:47:47;18.50;68.40
54202;DHT22;40108;53.152;5.844;2022-09-13T16:50:12;18.40;69.20
54202;DHT22;40108;53.152;5.844;2022-09-13T16:52:38;18.40;69.20
54202;DHT22;40108;53.152;5.844;2022-09-13T16:55:05;18.30;69.30
54202;DHT22;40108;53.152;5.844;2022-09-13T16:57:31;18.30;69.50
54202;DHT22;40108;53.152;5.844;2022-09-13T16:59:57;18.20;69.50
54202;DHT22;40108;53.152;5.844;2022-09-13T17:02:25;18.20;69.00
54202;DHT22;40108;53.152;5.844;2022-09-13T17:04:51;18.10;69.30
54202;DHT22;40108;53.152;5.844;2022-09-13T17:07:17;18.10;68.70
54202;DHT22;40108;53.152;5.844;2022-09-13T17:09:43;18.10;68.90
54202;DHT22;40108;53.152;5.844;2022-09-13T17:12:12;18.00;69.10
54202;DHT22;40108;53.152;5.844;2022-09-13T17:14:39;18.00;69.20
54202;DHT22;40108;53.152;5.844;2022-09-13T17:17:13;17.90;69.20
54202;DHT22;40108;53.152;5.844;2022-09-13T17:19:39;17.90;69.50
54202;DHT22;40108;53.152;5.844;2022-09-13T17:22:05;17.90;69.60
54202;DHT22;40108;53.152;5.844;2022-09-13T17:24:32;17.80;69.50
54202;DHT22;40108;53.152;5.844;2022-09-13T17:26:58;17.80;69.50
54202;DHT22;40108;53.152;5.844;2022-09-13T17:29:25;17.80;69.80
54202;DHT22;40108;53.152;5.844;2022-09-13T17:32:04;17.70;69.80
54202;DHT22;40108;53.152;5.844;2022-09-13T17:34:30;17.70;70.10
54202;DHT22;40108;53.152;5.844;2022-09-13T17:36:58;17.60;70.40
54202;DHT22;40108;53.152;5.844;2022-09-13T17:39:23;17.60;70.60
54202;DHT22;40108;53.152;5.844;2022-09-13T17:41:49;17.60;70.70
54202;DHT22;40108;53.152;5.844;2022-09-13T17:44:16;17.50;70.80
54202;DHT22;40108;53.152;5.844;2022-09-13T17:46:42;17.40;71.00
54202;DHT22;40108;53.152;5.844;2022-09-13T17:49:08;17.40;71.10
54202;DHT22;40108;53.152;5.844;2022-09-13T17:51:34;17.30;71.20
54202;DHT22;40108;53.152;5.844;2022-09-13T17:54:05;17.30;71.80
54202;DHT22;40108;53.152;5.844;2022-09-13T17:56:36;17.20;72.00
54202;DHT22;40108;53.152;5.844;2022-09-13T17:59:09;17.10;71.90
54202;DHT22;40108;53.152;5.844;2022-09-13T18:01:36;17.10;71.90
54202;DHT22;40108;53.152;5.844;2022-09-13T18:04:03;17.10;72.20
54202;DHT22;40108;53.152;5.844;2022-09-13T18:06:28;17.00;72.40
54202;DHT22;40108;53.152;5.844;2022-09-13T18:08:54;16.90;73.00
54202;DHT22;40108;53.152;5.844;2022-09-13T18:11:21;16.80;73.10
54202;DHT22;40108;53.152;5.844;2022-09-13T18:13:47;16.80;73.20
54202;DHT22;40108;53.152;5.844;2022-09-13T18:16:15;16.70;73.50
54202;DHT22;40108;53.152;5.844;2022-09-13T18:18:41;16.60;73.30
54202;DHT22;40108;53.152;5.844;2022-09-13T18:21:10;16.60;73.60
54202;DHT22;40108;53.152;5.844;2022-09-13T18:23:39;16.60;73.30
54202;DHT22;40108;53.152;5.844;2022-09-13T18:26:07;16.60;74.20
54202;DHT22;40108;53.152;5.844;2022-09-13T18:28:37;16.50;73.90
54202;DHT22;40108;53.152;5.844;2022-09-13T18:31:05;16.40;74.50
54202;DHT22;40108;53.152;5.844;2022-09-13T18:33:32;16.40;74.30
54202;DHT22;40108;53.152;5.844;2022-09-13T18:36:06;16.30;74.20
54202;DHT22;40108;53.152;5.844;2022-09-13T18:38:43;16.20;74.20
54202;DHT22;40108;53.152;5.844;2022-09-13T18:41:16;16.10;74.70
54202;DHT22;40108;53.152;5.844;2022-09-13T18:43:44;16.10;74.90
54202;DHT22;40108;53.152;5.844;2022-09-13T18:46:13;16.10;75.00
54202;DHT22;40108;53.152;5.844;2022-09-13T18:48:43;15.90;75.60
54202;DHT22;40108;53.152;5.844;2022-09-13T18:51:12;15.90;76.10
54202;DHT22;40108;53.152;5.844;2022-09-13T18:53:38;15.90;75.90
54202;DHT22;40108;53.152;5.844;2022-09-13T18:56:07;15.80;75.50
54202;DHT22;40108;53.152;5.844;2022-09-13T18:58:36;15.80;75.70
54202;DHT22;40108;53.152;5.844;2022-09-13T19:01:04;15.70;75.80
54202;DHT22;40108;53.152;5.844;2022-09-13T19:03:31;15.70;76.30
54202;DHT22;40108;53.152;5.844;2022-09-13T19:06:15;15.70;76.50
54202;DHT22;40108;53.152;5.844;2022-09-13T19:08:41;15.60;76.60
54202;DHT22;40108;53.152;5.844;2022-09-13T19:11:08;15.60;76.80
54202;DHT22;40108;53.152;5.844;2022-09-13T19:13:35;15.60;77.00
54202;DHT22;40108;53.152;5.844;2022-09-13T19:16:04;15.60;77.30
54202;DHT22;40108;53.152;5.844;2022-09-13T19:18:33;15.60;77.40